Prosper, Texas
Current Conditions -  °F | °C
As of 9:53 AM on Friday 24 Oct 2014 (Local Time) from KTKI Reporting Station
Clear Clear  
Wind Chill: 66°   Ceiling: Unl
Heat Index: 66°   Visibility: 10mi
Dew Point: 55°   Wind: 13mph
Humidity: 68%   Direction: 180°S
Pressure: 30.18"   Gusts: NA
Location:  33.24°N, 96.8°W
Report Text: KTKI 241453Z 18011KT 10SM CLR 19/13 A3018 RMK AO2 SLP220 T01890128 53013
Loading
Personal Weather Stations






























Interactive Weather Map
Tropical Storm Tracking
New forecast layout! Learn more

10-Day Weather Forecast

Advertisements
Track Severe Weather on mobile